sensor_id;sensor_type;location;lat;lon;timestamp;pressure;altitude;pressure_sealevel;temperature;humidity
22930;BME280;11630;42.660;23.292;2022-07-23T00:01:27;70014.05;;;22.49;72.21
22930;BME280;11630;42.660;23.292;2022-07-23T00:03:54;70028.48;;;22.45;72.08
22930;BME280;11630;42.660;23.292;2022-07-23T00:06:24;70011.69;;;22.36;71.25
22930;BME280;11630;42.660;23.292;2022-07-23T00:08:55;69997.11;;;22.22;71.00
22930;BME280;11630;42.660;23.292;2022-07-23T00:11:25;70005.92;;;22.30;71.28
22930;BME280;11630;42.660;23.292;2022-07-23T00:13:59;69995.75;;;22.19;73.10
22930;BME280;11630;42.660;23.292;2022-07-23T00:16:30;70010.87;;;22.34;72.34
22930;BME280;11630;42.660;23.292;2022-07-23T00:19:00;70005.64;;;22.28;72.44
22930;BME280;11630;42.660;23.292;2022-07-23T00:21:32;69994.03;;;22.25;71.93
22930;BME280;11630;42.660;23.292;2022-07-23T00:24:04;69983.65;;;22.11;72.25
22930;BME280;11630;42.660;23.292;2022-07-23T00:26:37;69971.53;;;22.02;72.39
22930;BME280;11630;42.660;23.292;2022-07-23T00:29:06;69991.67;;;22.09;73.15
22930;BME280;11630;42.660;23.292;2022-07-23T00:31:37;69979.83;;;22.02;73.16
22930;BME280;11630;42.660;23.292;2022-07-23T00:34:08;69996.59;;;22.19;73.50
22930;BME280;11630;42.660;23.292;2022-07-23T00:36:38;69991.11;;;22.11;73.33
22930;BME280;11630;42.660;23.292;2022-07-23T00:39:09;69950.08;;;21.88;74.73
22930;BME280;11630;42.660;23.292;2022-07-23T00:41:40;69973.02;;;21.90;75.59
22930;BME280;11630;42.660;23.292;2022-07-23T00:44:21;69972.68;;;21.98;76.21
22930;BME280;11630;42.660;23.292;2022-07-23T00:46:54;69967.42;;;21.97;76.58
22930;BME280;11630;42.660;23.292;2022-07-23T00:49:27;69960.80;;;21.96;76.71
22930;BME280;11630;42.660;23.292;2022-07-23T00:51:57;69983.70;;;22.03;76.91
22930;BME280;11630;42.660;23.292;2022-07-23T00:54:29;69944.57;;;21.85;77.75
22930;BME280;11630;42.660;23.292;2022-07-23T00:57:00;69953.08;;;21.92;77.86
22930;BME280;11630;42.660;23.292;2022-07-23T00:59:31;69964.14;;;21.92;77.83
22930;BME280;11630;42.660;23.292;2022-07-23T01:02:02;69963.61;;;21.91;77.78
22930;BME280;11630;42.660;23.292;2022-07-23T01:04:33;69958.92;;;21.88;78.48
22930;BME280;11630;42.660;23.292;2022-07-23T01:07:05;69957.58;;;21.83;78.15
22930;BME280;11630;42.660;23.292;2022-07-23T01:09:37;69964.17;;;21.89;78.32
22930;BME280;11630;42.660;23.292;2022-07-23T01:12:11;69952.88;;;21.85;78.95
22930;BME280;11630;42.660;23.292;2022-07-23T01:14:43;69924.59;;;21.59;79.54
22930;BME280;11630;42.660;23.292;2022-07-23T01:17:14;69924.59;;;21.59;79.54
22930;BME280;11630;42.660;23.292;2022-07-23T01:19:45;69939.44;;;21.69;79.88
22930;BME280;11630;42.660;23.292;2022-07-23T01:22:19;69949.56;;;21.82;79.58
22930;BME280;11630;42.660;23.292;2022-07-23T01:24:49;69928.41;;;21.67;80.68
22930;BME280;11630;42.660;23.292;2022-07-23T01:27:21;69943.61;;;21.65;81.04
22930;BME280;11630;42.660;23.292;2022-07-23T01:29:52;69946.38;;;21.67;81.07
22930;BME280;11630;42.660;23.292;2022-07-23T01:32:24;69894.97;;;21.27;82.49
22930;BME280;11630;42.660;23.292;2022-07-23T01:34:54;69878.97;;;21.20;83.33
22930;BME280;11630;42.660;23.292;2022-07-23T01:37:26;69900.98;;;21.32;84.16
22930;BME280;11630;42.660;23.292;2022-07-23T01:39:59;69900.98;;;21.32;84.16
22930;BME280;11630;42.660;23.292;2022-07-23T01:42:31;69889.72;;;21.26;84.72
22930;BME280;11630;42.660;23.292;2022-07-23T01:45:02;69847.70;;;20.91;83.35
22930;BME280;11630;42.660;23.292;2022-07-23T01:47:33;69830.42;;;20.72;83.42
22930;BME280;11630;42.660;23.292;2022-07-23T01:50:04;69830.42;;;20.72;83.42
22930;BME280;11630;42.660;23.292;2022-07-23T01:52:35;69827.38;;;20.73;85.42
22930;BME280;11630;42.660;23.292;2022-07-23T01:55:07;69836.45;;;20.80;85.97
22930;BME280;11630;42.660;23.292;2022-07-23T01:57:37;69849.41;;;20.83;85.96
22930;BME280;11630;42.660;23.292;2022-07-23T02:00:10;69842.16;;;20.94;85.35
22930;BME280;11630;42.660;23.292;2022-07-23T02:02:41;69835.88;;;20.85;85.62
22930;BME280;11630;42.660;23.292;2022-07-23T02:05:11;69820.80;;;20.67;86.62
22930;BME280;11630;42.660;23.292;2022-07-23T02:07:44;69815.30;;;20.62;87.23
22930;BME280;11630;42.660;23.292;2022-07-23T02:10:15;69836.48;;;20.75;86.49
22930;BME280;11630;42.660;23.292;2022-07-23T02:12:46;69853.20;;;20.94;85.35
22930;BME280;11630;42.660;23.292;2022-07-23T02:15:16;69869.13;;;21.08;84.28
22930;BME280;11630;42.660;23.292;2022-07-23T02:17:50;69884.54;;;21.15;84.26
22930;BME280;11630;42.660;23.292;2022-07-23T02:20:23;69897.19;;;21.24;84.32
22930;BME280;11630;42.660;23.292;2022-07-23T02:22:54;69901.81;;;21.34;84.48
22930;BME280;11630;42.660;23.292;2022-07-23T02:25:25;69900.69;;;21.36;84.10
22930;BME280;11630;42.660;23.292;2022-07-23T02:27:56;69894.59;;;21.38;83.60
22930;BME280;11630;42.660;23.292;2022-07-23T02:30:28;69894.59;;;21.38;83.60
22930;BME280;11630;42.660;23.292;2022-07-23T02:32:59;69891.86;;;21.35;83.00
22930;BME280;11630;42.660;23.292;2022-07-23T02:35:29;69889.91;;;21.35;82.55
22930;BME280;11630;42.660;23.292;2022-07-23T02:38:02;69890.52;;;21.28;82.26
22930;BME280;11630;42.660;23.292;2022-07-23T02:40:32;69873.20;;;21.16;81.38
22930;BME280;11630;42.660;23.292;2022-07-23T02:43:03;69866.93;;;21.06;81.28
22930;BME280;11630;42.660;23.292;2022-07-23T02:45:34;69883.12;;;21.20;79.54
22930;BME280;11630;42.660;23.292;2022-07-23T02:48:05;69860.30;;;21.05;80.02
22930;BME280;11630;42.660;23.292;2022-07-23T02:50:36;69865.80;;;21.08;79.96
22930;BME280;11630;42.660;23.292;2022-07-23T02:53:07;69860.93;;;20.96;80.65
22930;BME280;11630;42.660;23.292;2022-07-23T02:55:38;69869.41;;;21.05;80.73
22930;BME280;11630;42.660;23.292;2022-07-23T02:58:11;69865.88;;;21.00;80.98
22930;BME280;11630;42.660;23.292;2022-07-23T03:00:45;69841.89;;;20.92;80.58
22930;BME280;11630;42.660;23.292;2022-07-23T03:03:12;69837.84;;;20.80;81.67
22930;BME280;11630;42.660;23.292;2022-07-23T03:05:43;69835.64;;;20.78;81.29
22930;BME280;11630;42.660;23.292;2022-07-23T03:08:14;69847.44;;;20.90;81.38
22930;BME280;11630;42.660;23.292;2022-07-23T03:10:45;69841.66;;;20.86;81.60
22930;BME280;11630;42.660;23.292;2022-07-23T03:13:16;69818.27;;;20.71;82.13
22930;BME280;11630;42.660;23.292;2022-07-23T03:15:49;69826.00;;;20.76;82.50
22930;BME280;11630;42.660;23.292;2022-07-23T03:18:22;69834.81;;;20.74;82.87
22930;BME280;11630;42.660;23.292;2022-07-23T03:20:53;69834.02;;;20.72;82.84
22930;BME280;11630;42.660;23.292;2022-07-23T03:23:25;69837.60;;;20.71;82.71
22930;BME280;11630;42.660;23.292;2022-07-23T03:25:55;69821.63;;;20.64;83.74
22930;BME280;11630;42.660;23.292;2022-07-23T03:28:25;69814.97;;;20.68;83.54
22930;BME280;11630;42.660;23.292;2022-07-23T03:30:55;69824.12;;;20.65;83.90
22930;BME280;11630;42.660;23.292;2022-07-23T03:33:26;69821.88;;;20.68;84.01
22930;BME280;11630;42.660;23.292;2022-07-23T03:35:57;69810.39;;;20.53;84.38
22930;BME280;11630;42.660;23.292;2022-07-23T03:38:28;69822.75;;;20.63;83.70
22930;BME280;11630;42.660;23.292;2022-07-23T03:40:59;69826.66;;;20.56;84.56
22930;BME280;11630;42.660;23.292;2022-07-23T03:43:30;69824.70;;;20.61;85.03
22930;BME280;11630;42.660;23.292;2022-07-23T03:46:06;69817.52;;;20.62;85.52
22930;BME280;11630;42.660;23.292;2022-07-23T03:48:33;69834.54;;;20.77;84.49
22930;BME280;11630;42.660;23.292;2022-07-23T03:51:04;69849.11;;;20.89;84.19
22930;BME280;11630;42.660;23.292;2022-07-23T03:53:35;69811.75;;;20.55;84.42
22930;BME280;11630;42.660;23.292;2022-07-23T03:56:06;69822.53;;;20.54;85.00
22930;BME280;11630;42.660;23.292;2022-07-23T03:58:37;69802.17;;;20.45;85.78
22930;BME280;11630;42.660;23.292;2022-07-23T04:01:08;69780.52;;;20.22;87.94
22930;BME280;11630;42.660;23.292;2022-07-23T04:03:41;69789.53;;;20.36;87.15
22930;BME280;11630;42.660;23.292;2022-07-23T04:06:16;69817.53;;;20.59;85.15
22930;BME280;11630;42.660;23.292;2022-07-23T04:08:46;69840.60;;;20.80;86.45
22930;BME280;11630;42.660;23.292;2022-07-23T04:11:17;69846.04;;;20.92;85.84
22930;BME280;11630;42.660;23.292;2022-07-23T04:13:48;69864.97;;;21.11;85.79
22930;BME280;11630;42.660;23.292;2022-07-23T04:16:18;69887.80;;;21.23;85.58
22930;BME280;11630;42.660;23.292;2022-07-23T04:18:49;69903.82;;;21.25;86.08
22930;BME280;11630;42.660;23.292;2022-07-23T04:21:20;69925.97;;;21.59;84.62
22930;BME280;11630;42.660;23.292;2022-07-23T04:23:51;69939.44;;;21.69;84.16
22930;BME280;11630;42.660;23.292;2022-07-23T04:26:21;69947.64;;;21.79;84.00
22930;BME280;11630;42.660;23.292;2022-07-23T04:28:53;69947.73;;;21.69;83.67
22930;BME280;11630;42.660;23.292;2022-07-23T04:31:25;69924.67;;;21.44;85.21
22930;BME280;11630;42.660;23.292;2022-07-23T04:33:55;69938.34;;;21.68;82.94
22930;BME280;11630;42.660;23.292;2022-07-23T04:36:25;69938.34;;;21.68;82.94
22930;BME280;11630;42.660;23.292;2022-07-23T04:38:56;69986.72;;;22.05;81.63
22930;BME280;11630;42.660;23.292;2022-07-23T04:41:27;70015.02;;;22.34;81.28
22930;BME280;11630;42.660;23.292;2022-07-23T04:43:58;70000.13;;;22.23;79.34
22930;BME280;11630;42.660;23.292;2022-07-23T04:46:28;69994.05;;;22.23;79.22
22930;BME280;11630;42.660;23.292;2022-07-23T04:48:59;69974.34;;;21.97;78.95
22930;BME280;11630;42.660;23.292;2022-07-23T04:51:31;69981.80;;;22.00;78.37
22930;BME280;11630;42.660;23.292;2022-07-23T04:54:00;70007.59;;;22.26;76.40
22930;BME280;11630;42.660;23.292;2022-07-23T04:56:31;70027.41;;;22.44;76.05
22930;BME280;11630;42.660;23.292;2022-07-23T04:59:02;70032.81;;;22.59;76.79
22930;BME280;11630;42.660;23.292;2022-07-23T05:01:34;70060.35;;;22.76;76.95
22930;BME280;11630;42.660;23.292;2022-07-23T05:04:05;70098.88;;;23.09;75.79
22930;BME280;11630;42.660;23.292;2022-07-23T05:06:37;70112.52;;;23.31;73.76
22930;BME280;11630;42.660;23.292;2022-07-23T05:09:07;70128.84;;;23.34;74.14
22930;BME280;11630;42.660;23.292;2022-07-23T05:11:40;70126.09;;;23.32;74.42
22930;BME280;11630;42.660;23.292;2022-07-23T05:14:10;70176.31;;;23.62;73.58
22930;BME280;11630;42.660;23.292;2022-07-23T05:16:41;70187.01;;;23.76;73.49
22930;BME280;11630;42.660;23.292;2022-07-23T05:19:12;70198.81;;;23.90;73.22
22930;BME280;11630;42.660;23.292;2022-07-23T05:21:43;70207.18;;;24.14;72.78
22930;BME280;11630;42.660;23.292;2022-07-23T05:24:14;70249.45;;;24.36;71.43
22930;BME280;11630;42.660;23.292;2022-07-23T05:26:45;70262.52;;;24.63;70.41
22930;BME280;11630;42.660;23.292;2022-07-23T05:29:17;70287.42;;;24.73;69.12
22930;BME280;11630;42.660;23.292;2022-07-23T05:31:48;70270.34;;;24.57;69.23
22930;BME280;11630;42.660;23.292;2022-07-23T05:34:19;70279.59;;;24.76;68.34
22930;BME280;11630;42.660;23.292;2022-07-23T05:36:49;70321.00;;;25.03;67.24
22930;BME280;11630;42.660;23.292;2022-07-23T05:39:19;70312.69;;;25.00;66.62
22930;BME280;11630;42.660;23.292;2022-07-23T05:41:50;70338.88;;;25.23;65.67
22930;BME280;11630;42.660;23.292;2022-07-23T05:44:21;70348.03;;;25.25;66.30
22930;BME280;11630;42.660;23.292;2022-07-23T05:46:52;70350.65;;;25.40;64.73
22930;BME280;11630;42.660;23.292;2022-07-23T05:49:23;70299.67;;;24.95;65.81
22930;BME280;11630;42.660;23.292;2022-07-23T05:51:54;70304.03;;;25.04;66.26
22930;BME280;11630;42.660;23.292;2022-07-23T05:54:27;70380.84;;;25.53;64.71
22930;BME280;11630;42.660;23.292;2022-07-23T05:57:03;70383.02;;;25.58;63.49
22930;BME280;11630;42.660;23.292;2022-07-23T05:59:29;70372.99;;;25.56;64.68
22930;BME280;11630;42.660;23.292;2022-07-23T06:02:00;70422.73;;;25.91;63.43
22930;BME280;11630;42.660;23.292;2022-07-23T06:04:31;70429.70;;;25.91;62.35
22930;BME280;11630;42.660;23.292;2022-07-23T06:07:02;70425.20;;;25.94;61.42
22930;BME280;11630;42.660;23.292;2022-07-23T06:09:33;70440.02;;;26.13;61.35
22930;BME280;11630;42.660;23.292;2022-07-23T06:12:04;70469.31;;;26.32;60.63
22930;BME280;11630;42.660;23.292;2022-07-23T06:14:35;70488.16;;;26.41;60.76
22930;BME280;11630;42.660;23.292;2022-07-23T06:17:06;70480.84;;;26.47;60.41
22930;BME280;11630;42.660;23.292;2022-07-23T06:19:37;70491.05;;;26.55;58.97
22930;BME280;11630;42.660;23.292;2022-07-23T06:22:08;70514.55;;;26.72;58.58
22930;BME280;11630;42.660;23.292;2022-07-23T06:24:39;70479.31;;;26.36;59.34
22930;BME280;11630;42.660;23.292;2022-07-23T06:27:10;70536.86;;;26.94;57.51
22930;BME280;11630;42.660;23.292;2022-07-23T06:29:42;70494.91;;;26.58;57.39
22930;BME280;11630;42.660;23.292;2022-07-23T06:32:13;70509.84;;;26.69;58.42
22930;BME280;11630;42.660;23.292;2022-07-23T06:34:44;70500.80;;;26.57;58.24
22930;BME280;11630;42.660;23.292;2022-07-23T06:37:15;70509.27;;;26.71;57.92
22930;BME280;11630;42.660;23.292;2022-07-23T06:39:45;70531.31;;;26.91;56.52
22930;BME280;11630;42.660;23.292;2022-07-23T06:42:16;70560.37;;;27.11;54.85
22930;BME280;11630;42.660;23.292;2022-07-23T06:44:47;70570.92;;;27.37;53.97
22930;BME280;11630;42.660;23.292;2022-07-23T06:47:18;70646.20;;;27.87;51.53
22930;BME280;11630;42.660;23.292;2022-07-23T06:49:49;70625.94;;;27.78;50.66
22930;BME280;11630;42.660;23.292;2022-07-23T06:52:21;70683.49;;;28.19;50.35
22930;BME280;11630;42.660;23.292;2022-07-23T06:54:52;70703.61;;;28.41;50.14
22930;BME280;11630;42.660;23.292;2022-07-23T06:57:22;70692.77;;;28.35;49.33
22930;BME280;11630;42.660;23.292;2022-07-23T06:59:54;70725.98;;;28.60;48.54
22930;BME280;11630;42.660;23.292;2022-07-23T07:02:24;70670.97;;;28.14;49.33
22930;BME280;11630;42.660;23.292;2022-07-23T07:04:55;70590.63;;;27.46;50.18
22930;BME280;11630;42.660;23.292;2022-07-23T07:07:25;70621.30;;;27.70;49.76
22930;BME280;11630;42.660;23.292;2022-07-23T07:09:56;70607.55;;;27.52;50.01
22930;BME280;11630;42.660;23.292;2022-07-23T07:12:35;70691.57;;;28.42;48.14
22930;BME280;11630;42.660;23.292;2022-07-23T07:15:08;70684.88;;;28.22;48.38
22930;BME280;11630;42.660;23.292;2022-07-23T07:17:38;70728.20;;;28.62;48.09
22930;BME280;11630;42.660;23.292;2022-07-23T07:20:12;70711.06;;;28.47;49.15
22930;BME280;11630;42.660;23.292;2022-07-23T07:22:43;70736.74;;;28.71;48.92
22930;BME280;11630;42.660;23.292;2022-07-23T07:25:14;70768.80;;;29.00;47.73
22930;BME280;11630;42.660;23.292;2022-07-23T07:27:46;70791.98;;;29.21;46.59
22930;BME280;11630;42.660;23.292;2022-07-23T07:30:16;70794.79;;;29.21;46.60
22930;BME280;11630;42.660;23.292;2022-07-23T07:32:46;70785.95;;;29.13;47.65
22930;BME280;11630;42.660;23.292;2022-07-23T07:35:16;70802.23;;;29.29;47.12
22930;BME280;11630;42.660;23.292;2022-07-23T07:37:47;70817.98;;;29.61;46.95
22930;BME280;11630;42.660;23.292;2022-07-23T07:40:18;70835.13;;;29.57;47.27
22930;BME280;11630;42.660;23.292;2022-07-23T07:42:52;70783.69;;;29.13;48.90
22930;BME280;11630;42.660;23.292;2022-07-23T07:45:25;70776.23;;;29.08;48.78
22930;BME280;11630;42.660;23.292;2022-07-23T07:47:55;70767.02;;;29.06;49.10
22930;BME280;11630;42.660;23.292;2022-07-23T07:50:28;70799.20;;;29.25;48.86
22930;BME280;11630;42.660;23.292;2022-07-23T07:52:58;70861.52;;;29.91;46.74
22930;BME280;11630;42.660;23.292;2022-07-23T07:55:29;70879.92;;;29.97;46.74
22930;BME280;11630;42.660;23.292;2022-07-23T07:58:00;70927.73;;;30.42;44.89
22930;BME280;11630;42.660;23.292;2022-07-23T08:00:30;70883.88;;;30.12;45.24
22930;BME280;11630;42.660;23.292;2022-07-23T08:03:01;70839.91;;;29.74;46.60
22930;BME280;11630;42.660;23.292;2022-07-23T08:05:32;70927.44;;;30.43;45.24
22930;BME280;11630;42.660;23.292;2022-07-23T08:08:03;70930.23;;;30.43;45.29
22930;BME280;11630;42.660;23.292;2022-07-23T08:10:33;70866.64;;;29.85;46.52
22930;BME280;11630;42.660;23.292;2022-07-23T08:13:04;70931.05;;;30.44;45.65
22930;BME280;11630;42.660;23.292;2022-07-23T08:15:35;70988.61;;;30.94;44.99
22930;BME280;11630;42.660;23.292;2022-07-23T08:18:06;70987.73;;;30.97;44.32
22930;BME280;11630;42.660;23.292;2022-07-23T08:20:37;71050.83;;;31.53;43.36
22930;BME280;11630;42.660;23.292;2022-07-23T08:23:09;71072.16;;;31.71;43.02
22930;BME280;11630;42.660;23.292;2022-07-23T08:25:41;71112.25;;;32.11;42.65
22930;BME280;11630;42.660;23.292;2022-07-23T08:28:13;71100.58;;;32.01;42.39
22930;BME280;11630;42.660;23.292;2022-07-23T08:30:45;71107.89;;;32.02;42.07
22930;BME280;11630;42.660;23.292;2022-07-23T08:33:18;71063.30;;;31.63;42.91
22930;BME280;11630;42.660;23.292;2022-07-23T08:35:50;71088.17;;;31.88;42.82
22930;BME280;11630;42.660;23.292;2022-07-23T08:38:22;71076.28;;;31.76;41.50
22930;BME280;11630;42.660;23.292;2022-07-23T08:40:53;71130.56;;;32.25;40.00
22930;BME280;11630;42.660;23.292;2022-07-23T08:43:29;71120.59;;;32.16;40.15
22930;BME280;11630;42.660;23.292;2022-07-23T08:46:02;71098.73;;;31.95;39.66
22930;BME280;11630;42.660;23.292;2022-07-23T08:48:35;71161.85;;;32.52;39.12
22930;BME280;11630;42.660;23.292;2022-07-23T08:51:07;71203.37;;;32.91;38.86
22930;BME280;11630;42.660;23.292;2022-07-23T08:53:37;71184.83;;;32.74;38.58
22930;BME280;11630;42.660;23.292;2022-07-23T08:56:08;71226.34;;;33.13;38.49
22930;BME280;11630;42.660;23.292;2022-07-23T08:58:39;71253.84;;;33.34;37.39
22930;BME280;11630;42.660;23.292;2022-07-23T09:01:14;71235.76;;;33.22;37.99
22930;BME280;11630;42.660;23.292;2022-07-23T09:03:45;71239.94;;;33.24;37.74
22930;BME280;11630;42.660;23.292;2022-07-23T09:06:16;71313.66;;;33.90;36.71
22930;BME280;11630;42.660;23.292;2022-07-23T09:08:47;71273.98;;;33.56;36.25
22930;BME280;11630;42.660;23.292;2022-07-23T09:11:18;71265.96;;;33.48;36.64
22930;BME280;11630;42.660;23.292;2022-07-23T09:13:54;71298.93;;;33.78;35.78
22930;BME280;11630;42.660;23.292;2022-07-23T09:16:35;71315.01;;;33.93;34.74
22930;BME280;11630;42.660;23.292;2022-07-23T09:19:06;71356.34;;;34.29;34.40
22930;BME280;11630;42.660;23.292;2022-07-23T09:21:37;71372.67;;;34.45;34.54
22930;BME280;11630;42.660;23.292;2022-07-23T09:24:10;71396.48;;;34.68;34.93
22930;BME280;11630;42.660;23.292;2022-07-23T09:26:58;71396.28;;;34.64;34.43
22930;BME280;11630;42.660;23.292;2022-07-23T09:29:29;71432.27;;;34.99;33.23
22930;BME280;11630;42.660;23.292;2022-07-23T09:32:01;71450.03;;;35.15;32.12
22930;BME280;11630;42.660;23.292;2022-07-23T09:34:33;71427.02;;;34.93;32.76
22930;BME280;11630;42.660;23.292;2022-07-23T09:37:13;71369.04;;;34.43;33.56
22930;BME280;11630;42.660;23.292;2022-07-23T09:39:46;71471.42;;;35.33;32.25
22930;BME280;11630;42.660;23.292;2022-07-23T09:42:21;71534.14;;;35.89;31.24
22930;BME280;11630;42.660;23.292;2022-07-23T09:44:55;71540.22;;;35.95;30.38
22930;BME280;11630;42.660;23.292;2022-07-23T09:47:28;71576.88;;;36.27;30.69
22930;BME280;11630;42.660;23.292;2022-07-23T09:50:09;71545.00;;;35.98;30.45
22930;BME280;11630;42.660;23.292;2022-07-23T09:52:49;71608.79;;;36.57;29.21
22930;BME280;11630;42.660;23.292;2022-07-23T09:55:21;71553.58;;;36.07;29.41
22930;BME280;11630;42.660;23.292;2022-07-23T09:57:52;71622.67;;;36.70;28.77
22930;BME280;11630;42.660;23.292;2022-07-23T10:00:23;71570.22;;;36.21;27.94
22930;BME280;11630;42.660;23.292;2022-07-23T10:02:55;71643.54;;;36.87;27.65
22930;BME280;11630;42.660;23.292;2022-07-23T10:05:25;71633.83;;;36.77;26.44
22930;BME280;11630;42.660;23.292;2022-07-23T10:07:59;71629.63;;;36.75;26.02
22930;BME280;11630;42.660;23.292;2022-07-23T10:10:32;71668.14;;;37.13;26.25
22930;BME280;11630;42.660;23.292;2022-07-23T10:13:03;71579.11;;;36.29;26.83
22930;BME280;11630;42.660;23.292;2022-07-23T10:15:51;71647.97;;;36.91;26.49
22930;BME280;11630;42.660;23.292;2022-07-23T10:18:21;71721.63;;;37.56;26.14
22930;BME280;11630;42.660;23.292;2022-07-23T10:20:52;71725.14;;;37.63;25.57
22930;BME280;11630;42.660;23.292;2022-07-23T10:26:32;71695.77;;;37.34;26.15
22930;BME280;11630;42.660;23.292;2022-07-23T10:29:18;71694.02;;;37.35;25.90
22930;BME280;11630;42.660;23.292;2022-07-23T10:31:54;71717.06;;;37.57;25.09
22930;BME280;11630;42.660;23.292;2022-07-23T10:34:47;71767.99;;;37.98;24.22
22930;BME280;11630;42.660;23.292;2022-07-23T10:37:17;71793.58;;;38.21;24.59
22930;BME280;11630;42.660;23.292;2022-07-23T10:39:47;71776.27;;;38.08;24.21
22930;BME280;11630;42.660;23.292;2022-07-23T10:42:19;71797.70;;;38.26;24.49
22930;BME280;11630;42.660;23.292;2022-07-23T10:44:50;71823.58;;;38.48;24.15
22930;BME280;11630;42.660;23.292;2022-07-23T10:47:30;71839.16;;;38.62;23.74
22930;BME280;11630;42.660;23.292;2022-07-23T10:50:23;71802.09;;;38.33;23.04
22930;BME280;11630;42.660;23.292;2022-07-23T10:55:39;71885.25;;;39.06;22.79
22930;BME280;11630;42.660;23.292;2022-07-23T10:58:17;71801.36;;;38.28;22.16
22930;BME280;11630;42.660;23.292;2022-07-23T11:00:43;71836.02;;;38.63;21.25
22930;BME280;11630;42.660;23.292;2022-07-23T11:03:34;71868.55;;;38.91;20.31
22930;BME280;11630;42.660;23.292;2022-07-23T11:06:07;71810.48;;;38.38;20.82
22930;BME280;11630;42.660;23.292;2022-07-23T11:08:38;71831.59;;;38.56;20.61
22930;BME280;11630;42.660;23.292;2022-07-23T11:11:11;71834.05;;;38.62;19.84
22930;BME280;11630;42.660;23.292;2022-07-23T11:13:48;71896.69;;;39.15;19.27
22930;BME280;11630;42.660;23.292;2022-07-23T11:16:22;71936.74;;;39.50;18.54
22930;BME280;11630;42.660;23.292;2022-07-23T11:18:57;71940.16;;;39.51;18.32
22930;BME280;11630;42.660;23.292;2022-07-23T11:21:47;71937.55;;;39.52;18.17
22930;BME280;11630;42.660;23.292;2022-07-23T11:24:07;71966.15;;;39.79;17.85
22930;BME280;11630;42.660;23.292;2022-07-23T11:26:43;71851.88;;;38.76;18.36
22930;BME280;11630;42.660;23.292;2022-07-23T11:32:07;71877.76;;;38.98;18.83
22930;BME280;11630;42.660;23.292;2022-07-23T11:34:42;71963.75;;;39.73;17.72
22930;BME280;11630;42.660;23.292;2022-07-23T11:37:28;71964.72;;;39.79;17.82
22930;BME280;11630;42.660;23.292;2022-07-23T11:39:59;71893.53;;;39.16;17.69
22930;BME280;11630;42.660;23.292;2022-07-23T11:42:31;71803.83;;;38.32;17.93
22930;BME280;11630;42.660;23.292;2022-07-23T11:45:03;71737.05;;;37.74;18.72
22930;BME280;11630;42.660;23.292;2022-07-23T11:47:34;71830.74;;;38.57;18.63
22930;BME280;11630;42.660;23.292;2022-07-23T11:50:07;71934.27;;;39.47;18.17
22930;BME280;11630;42.660;23.292;2022-07-23T11:52:36;72013.52;;;40.19;17.95
22930;BME280;11630;42.660;23.292;2022-07-23T11:55:09;72028.81;;;40.34;17.50
22930;BME280;11630;42.660;23.292;2022-07-23T11:57:40;71989.36;;;39.96;16.86
22930;BME280;11630;42.660;23.292;2022-07-23T12:00:19;71993.18;;;40.02;16.75
22930;BME280;11630;42.660;23.292;2022-07-23T12:02:52;71909.72;;;39.28;17.07
22930;BME280;11630;42.660;23.292;2022-07-23T12:08:15;71929.74;;;39.45;16.88
22930;BME280;11630;42.660;23.292;2022-07-23T12:10:45;72002.58;;;40.13;16.73
22930;BME280;11630;42.660;23.292;2022-07-23T12:13:17;71966.78;;;39.77;16.32
22930;BME280;11630;42.660;23.292;2022-07-23T12:15:52;71948.98;;;39.61;16.56
22930;BME280;11630;42.660;23.292;2022-07-23T12:18:26;71981.27;;;39.90;15.96
22930;BME280;11630;42.660;23.292;2022-07-23T12:21:02;71960.59;;;39.74;15.35
22930;BME280;11630;42.660;23.292;2022-07-23T12:23:30;71975.62;;;39.88;15.22
22930;BME280;11630;42.660;23.292;2022-07-23T12:26:02;72049.64;;;40.54;14.74
22930;BME280;11630;42.660;23.292;2022-07-23T12:28:34;72046.63;;;40.50;14.43
22930;BME280;11630;42.660;23.292;2022-07-23T12:31:04;72026.89;;;40.31;14.77
22930;BME280;11630;42.660;23.292;2022-07-23T12:33:39;72045.74;;;40.50;15.20
22930;BME280;11630;42.660;23.292;2022-07-23T12:36:10;72034.68;;;40.38;14.82
22930;BME280;11630;42.660;23.292;2022-07-23T12:38:43;71934.84;;;39.47;15.53
22930;BME280;11630;42.660;23.292;2022-07-23T12:41:13;72031.09;;;40.33;15.25
22930;BME280;11630;42.660;23.292;2022-07-23T12:43:47;72117.58;;;41.14;15.18
22930;BME280;11630;42.660;23.292;2022-07-23T12:46:20;72097.89;;;40.93;15.91
22930;BME280;11630;42.660;23.292;2022-07-23T12:48:51;72134.83;;;41.30;15.32
22930;BME280;11630;42.660;23.292;2022-07-23T12:51:28;72128.72;;;41.24;15.41
22930;BME280;11630;42.660;23.292;2022-07-23T12:54:04;72034.63;;;40.40;16.55
22930;BME280;11630;42.660;23.292;2022-07-23T12:56:33;72000.97;;;40.09;15.50
22930;BME280;11630;42.660;23.292;2022-07-23T12:59:09;72086.39;;;40.87;15.14
22930;BME280;11630;42.660;23.292;2022-07-23T13:01:42;72108.16;;;41.03;15.02
22930;BME280;11630;42.660;23.292;2022-07-23T13:04:24;72065.59;;;40.64;14.60
22930;BME280;11630;42.660;23.292;2022-07-23T13:06:55;71985.47;;;39.93;14.68
22930;BME280;11630;42.660;23.292;2022-07-23T13:09:31;71922.58;;;39.36;15.01
22930;BME280;11630;42.660;23.292;2022-07-23T13:12:02;72049.09;;;40.53;14.85
22930;BME280;11630;42.660;23.292;2022-07-23T13:14:33;72020.08;;;40.30;15.03
22930;BME280;11630;42.660;23.292;2022-07-23T13:17:03;71959.78;;;39.72;14.94
22930;BME280;11630;42.660;23.292;2022-07-23T13:19:34;72006.86;;;40.13;14.51
22930;BME280;11630;42.660;23.292;2022-07-23T13:22:05;72064.09;;;40.67;14.41
22930;BME280;11630;42.660;23.292;2022-07-23T13:24:36;72114.59;;;41.08;14.14
22930;BME280;11630;42.660;23.292;2022-07-23T13:27:07;72107.06;;;41.02;14.30